ADDS METAR Data INFO
IDs: Format: Raw Decoded Include TAF

Data at: 1957 UTC 15 Dec 2017

KIKW 151955Z AUTO 27012G18KT 10SM SCT030 OVC049 M03/M09 A2975 RMK AO2 T10321095
KIKW 151935Z AUTO 27012G21KT 10SM SCT030 OVC049 M03/M09 A2974 RMK AO2 T10311094
KIKW 151915Z AUTO 28012G21KT 10SM SCT027 SCT042 OVC049 M03/M09 A2974 RMK AO2 T10301091
KIKW 151855Z AUTO 26012G20KT 10SM SCT025 SCT032 OVC042 M03/M09 A2973 RMK AO2 T10321086
KIKW 151835Z AUTO 27010KT 10SM BKN025 OVC032 M03/M08 A2973 RMK AO2 T10351080
KIKW 151815Z AUTO 26010G18KT 10SM BKN025 BKN030 OVC070 M03/M08 A2973 RMK AO2 T10331081
KIKW 151755Z AUTO 26012G17KT 10SM SCT020 BKN025 OVC070 M03/M08 A2973 RMK AO2 T10341078 11033 21070
KIKW 151735Z AUTO 25009KT 7SM -SN BKN018 OVC025 M03/M07 A2973 RMK AO2 T10351068
KIKW 151715Z AUTO 25007KT 4SM -SN BKN015 OVC023 M04/M07 A2974 RMK AO2 T10371066
KIKW 151655Z AUTO 25008G14KT 10SM BKN013 BKN019 OVC070 M04/M07 A2975 RMK AO2 T10401068
KIKW 151635Z AUTO 22007KT 4SM -SN SCT013 BKN019 OVC049 M04/M07 A2975 RMK AO2 T10401067
KIKW 151615Z AUTO 23009KT 7SM -SN BKN013 BKN030 OVC046 M05/M07 A2976 RMK AO2 T10461071
KIKW 151555Z AUTO 22007KT 2 1/2SM -SN BKN011 BKN017 OVC025 M05/M07 A2977 RMK AO2 T10501071
KIKW 151535Z AUTO 22010KT 2 1/2SM -SN SCT011 SCT015 OVC027 M05/M07 A2977 RMK AO2 T10511071
KIKW 151515Z AUTO 22009KT 1 1/4SM -SN BKN012 BKN017 OVC025 M05/M07 A2977 RMK AO2 T10551073
KIKW 151455Z AUTO 22007KT 3/4SM -SN SCT008 OVC014 M06/M07 A2978 RMK AO2 T10571074
KIKW 151436Z AUTO 20007KT 1 1/2SM -SN OVC017 M06/M08 A2977 RMK AO2 T10601077
KIKW 151415Z AUTO 19007KT 1 3/4SM -SN OVC017 M06/M08 A2978 RMK AO2 T10601077
KIKW 151355Z AUTO 19007KT 1 1/2SM -SN OVC014 M06/M08 A2979 RMK AO2 T10611077
KIKW 151335Z AUTO 18007KT 1SM -SN OVC012 M06/M08 A2979 RMK AO2 T10631080
KIKW 151315Z AUTO 19007KT 2 1/2SM -SN OVC020 M06/M08 A2980 RMK AO2 T10651081
KIKW 151255Z AUTO 18005KT 3SM -SN OVC018 M07/M08 A2981 RMK AO2 T10661082
KIKW 151235Z AUTO 18007KT 2 1/2SM -SN BKN018 OVC024 M07/M08 A2982 RMK AO2 T10681085
KIKW 151215Z AUTO 18006KT 2 1/2SM -SN BKN016 OVC027 M07/M09 A2983 RMK AO2 VIS 2V4 T10701087
KIKW 151155Z AUTO 17006KT 4SM -SN BKN028 BKN035 OVC043 M07/M09 A2984 RMK AO2 T10701088 11070 21090
KIKW 151135Z AUTO 18004KT 4SM -SN SCT021 BKN035 OVC048 M07/M09 A2985 RMK AO2 T10721090
KIKW 151115Z AUTO 18004KT 10SM SCT024 SCT029 OVC050 M07/M09 A2985 RMK AO2 T10751093
KIKW 151055Z AUTO 18004KT 10SM SCT023 SCT029 OVC050 M08/M09 A2986 RMK AO2 T10761095
KIKW 151035Z AUTO 19004KT 10SM OVC048 M08/M09 A2986 RMK AO2 T10781095
KIKW 151015Z AUTO 19004KT 10SM -SN SCT048 OVC100 M08/M10 A2987 RMK AO2 T10801096
KIKW 150955Z AUTO 19004KT 10SM SCT047 OVC100 M08/M10 A2988 RMK AO2 T10801097
KIKW 150935Z AUTO 20004KT 10SM SCT046 SCT060 OVC110 M08/M10 A2989 RMK AO2 T10801097
KIKW 150915Z AUTO 18003KT 10SM SCT039 BKN050 OVC060 M08/M10 A2990 RMK AO2 T10801097
KIKW 150855Z AUTO 19004KT 7SM BKN037 BKN045 OVC060 M08/M10 A2991 RMK AO2 T10801097
KIKW 150835Z AUTO 19003KT 7SM BKN034 BKN042 OVC048 M08/M10 A2992 RMK AO2 T10801097
KIKW 150815Z AUTO 21003KT 10SM SCT037 SCT042 OVC048 M08/M10 A2993 RMK AO2 T10821099
KIKW 150755Z AUTO 21003KT 10SM OVC035 M08/M10 A2994 RMK AO2 T10821099
KIKW 150735Z AUTO 21005KT 10SM OVC037 M08/M10 A2993 RMK AO2 T10851099
KIKW 150715Z AUTO 19003KT 10SM OVC041 M09/M10 A2994 RMK AO2 T10861100
KIKW 150655Z AUTO 00000KT 10SM OVC043 M09/M10 A2994 RMK AO2 T10881100
KIKW 150635Z AUTO 00000KT 10SM BKN041 OVC095 M09/M10 A2995 RMK AO2 T10881101
KIKW 150615Z AUTO 19004KT 10SM BKN041 OVC090 M09/M11 A2996 RMK AO2 T10901106
KIKW 150555Z AUTO 20005KT 10SM OVC039 M09/M11 A2997 RMK AO2 T10861110 11074 21110 410621217
KIKW 150535Z AUTO 00000KT 10SM OVC037 M08/M12 A2998 RMK AO2 T10851118
KIKW 150515Z AUTO 00000KT 10SM OVC035 M07/M11 A2999 RMK AO2 T10751108
KIKW 150455Z AUTO 22004KT 10SM OVC035 M08/M11 A3000 RMK AO2 T10761106
KIKW 150435Z AUTO 00000KT 10SM OVC035 M08/M10 A3000 RMK AO2 T10771103
KIKW 150415Z AUTO 21004KT 10SM OVC035 M08/M10 A3001 RMK AO2 T10821105
KIKW 150355Z AUTO 00000KT 10SM OVC037 M08/M10 A3002 RMK AO2 T10801105
KIKW 150335Z AUTO 00000KT 10SM OVC037 M08/M10 A3002 RMK AO2 T10781105
KIKW 150315Z AUTO 00000KT 10SM -SN OVC037 M08/M10 A3003 RMK AO2 T10761105
KIKW 150255Z AUTO 00000KT 10SM -SN OVC035 M08/M11 A3003 RMK AO2 T10761106
KIKW 150235Z AUTO 23003KT 10SM -SN OVC035 M08/M11 A3003 RMK AO2 T10771106
KIKW 150215Z AUTO 24003KT 10SM -SN OVC031 M08/M11 A3003 RMK AO2 T10771110
KIKW 150155Z AUTO 22004KT 10SM -SN OVC031 M08/M11 A3003 RMK AO2 T10771112
KIKW 150135Z AUTO 22004KT 10SM -SN SCT027 OVC033 M08/M12 A3003 RMK AO2 T10791116
KIKW 150115Z AUTO 24004KT 10SM OVC033 M08/M12 A3003 RMK AO2 T10801120
KIKW 150055Z AUTO 22004KT 10SM OVC035 M08/M12 A3003 RMK AO2 T10851123
KIKW 150035Z AUTO 22004KT 10SM OVC037 M09/M13 A3003 RMK AO2 T10881126
KIKW 150015Z AUTO 21003KT 10SM OVC037 M10/M13 A3002 RMK AO2 T10971131
KIKW 142355Z AUTO 21003KT 10SM SCT037 M11/M14 A3001 RMK AO2 T11111141 11062 21114
KIKW 142335Z AUTO 20003KT 10SM SCT037 M11/M14 A3001 RMK AO2 T11101140
KIKW 142315Z AUTO 00000KT 10SM SCT037 M09/M13 A3000 RMK AO2 T10951133
KIKW 142255Z AUTO 19003KT 10SM BKN037 M09/M13 A3000 RMK AO2 T10901130
KIKW 142235Z AUTO 19003KT 10SM OVC037 M09/M13 A3000 RMK AO2 T10871130
KIKW 142215Z AUTO 20004KT 10SM OVC037 M08/M13 A3000 RMK AO2 T10801126
KIKW 142155Z AUTO 20004KT 10SM OVC035 M08/M12 A3000 RMK AO2 T10771125
KIKW 142135Z AUTO 21003KT 10SM OVC035 M08/M12 A3000 RMK AO2 T10761125
KIKW 142115Z AUTO 21007KT 10SM OVC035 M07/M12 A3000 RMK AO2 T10751125
KIKW 142055Z AUTO 21005KT 10SM BKN033 M08/M13 A3000 RMK AO2 T10771126
KIKW 142035Z AUTO 21005KT 10SM BKN035 M07/M13 A3000 RMK AO2 T10751129
KIKW 142015Z AUTO 18008KT 10SM BKN035 M07/M13 A3000 RMK AO2 T10731129
KIKW 141955Z AUTO 19009KT 10SM SCT030 M07/M13 A3000 RMK AO2 T10741130
KIKW 141935Z AUTO 16006KT 10SM SCT030 M07/M13 A3000 RMK AO2 T10711129
KIKW 141915Z AUTO 22004KT 10SM CLR M07/M12 A3000 RMK AO2 T10661123
KIKW 141856Z AUTO 00000KT 10SM CLR M06/M12 A3000 RMK AO2 T10621124
KIKW 141835Z AUTO 23004KT 10SM CLR M07/M13 A3000 RMK AO2 T10711130
KIKW 141815Z AUTO 26003KT 10SM CLR M07/M13 A3000 RMK AO2 T10661128
KIKW 141755Z AUTO 21004KT 10SM CLR M08/M13 A3001 RMK AO2 T10771133 11077 21217
KIKW 141735Z AUTO 21004KT 10SM CLR M08/M13 A3001 RMK AO2 T10821135
KIKW 141715Z AUTO 18004KT 10SM CLR M09/M14 A3002 RMK AO2 T10861137
KIKW 141655Z AUTO 24004KT 10SM CLR M09/M14 A3003 RMK AO2 T10891140
KIKW 141635Z AUTO 23004KT 10SM CLR M09/M14 A3003 RMK AO2 T10951142
KIKW 141615Z AUTO 22004KT 10SM CLR M10/M15 A3003 RMK AO2 T11021146
KIKW 141555Z AUTO 00000KT 10SM CLR M10/M14 A3002 RMK AO2 T11031138
KIKW 141535Z AUTO 00000KT 10SM CLR M13/M15 A3002 RMK AO2 T11301153
KIKW 141515Z AUTO 00000KT 7SM CLR M14/M16 A3000 RMK AO2 T11441164
KIKW 141455Z AUTO 00000KT 10SM CLR M15/M17 A2999 RMK AO2 T11541175
KIKW 141435Z AUTO 00000KT 10SM CLR M17/M19 A2999 RMK AO2 T11691190
KIKW 141415Z AUTO 00000KT 10SM CLR M19/M21 A2998 RMK AO2 T11931214
KIKW 141355Z AUTO 00000KT 10SM CLR M21/M23 A2997 RMK AO2 T12061231
KIKW 141335Z AUTO 00000KT 10SM CLR M20/M23 A2995 RMK AO2 T12051227
KIKW 141315Z AUTO 00000KT 10SM CLR M21/M24 A2995 RMK AO2 T12101236
KIKW 141255Z AUTO 00000KT 10SM CLR M21/M23 A2995 RMK AO2 T12101233
KIKW 141235Z AUTO 00000KT 10SM CLR M21/M23 A2994 RMK AO2 T12061227
KIKW 141215Z AUTO 00000KT 10SM CLR M20/M23 A2992 RMK AO2 T12051226
KIKW 141155Z AUTO 00000KT 10SM CLR M18/M20 A2992 RMK AO2 T11851203 11090 21185
KIKW 141135Z AUTO 00000KT 10SM CLR M18/M20 A2991 RMK AO2 T11851203
KIKW 141115Z AUTO 00000KT 10SM CLR M17/M19 A2990 RMK AO2 T11701187
KIKW 141055Z AUTO 28003KT 10SM CLR M16/M18 A2989 RMK AO2 T11651182
KIKW 141035Z AUTO 32003KT 10SM CLR M15/M17 A2987 RMK AO2 T11501173
KIKW 141015Z AUTO 33004KT 10SM CLR M14/M16 A2986 RMK AO2 T11411161
KIKW 140955Z AUTO 32004KT 10SM CLR M14/M17 A2985 RMK AO2 T11431166
KIKW 140935Z AUTO 30003KT 10SM CLR M14/M16 A2984 RMK AO2 T11421165
KIKW 140915Z AUTO 30004KT 10SM CLR M13/M16 A2984 RMK AO2 T11351158
KIKW 140855Z AUTO 31005KT 10SM CLR M13/M15 A2983 RMK AO2 T11291154
KIKW 140835Z AUTO 32006KT 10SM CLR M12/M15 A2982 RMK AO2 T11241150
KIKW 140815Z AUTO 31005KT 10SM CLR M12/M15 A2980 RMK AO2 T11201147